sensor_id;sensor_type;location;lat;lon;timestamp;pressure;altitude;pressure_sealevel;temperature
10869;BMP180;62667;48.698;8.762;2023-04-19T00:01:49;96444.00;;;9.10
10869;BMP180;62667;48.698;8.762;2023-04-19T00:04:18;96441.00;;;9.10
10869;BMP180;62667;48.698;8.762;2023-04-19T00:06:46;96434.00;;;9.00
10869;BMP180;62667;48.698;8.762;2023-04-19T00:09:13;96439.00;;;9.00
10869;BMP180;62667;48.698;8.762;2023-04-19T00:11:41;96441.00;;;9.00
10869;BMP180;62667;48.698;8.762;2023-04-19T00:14:08;96437.00;;;9.10
10869;BMP180;62667;48.698;8.762;2023-04-19T00:16:35;96442.00;;;9.00
10869;BMP180;62667;48.698;8.762;2023-04-19T00:19:03;96443.00;;;9.10
10869;BMP180;62667;48.698;8.762;2023-04-19T00:21:31;96431.00;;;9.10
10869;BMP180;62667;48.698;8.762;2023-04-19T00:24:00;96437.00;;;9.00
10869;BMP180;62667;48.698;8.762;2023-04-19T00:26:28;96438.00;;;9.00
10869;BMP180;62667;48.698;8.762;2023-04-19T00:28:55;96432.00;;;9.00
10869;BMP180;62667;48.698;8.762;2023-04-19T00:31:22;96432.00;;;9.00
10869;BMP180;62667;48.698;8.762;2023-04-19T00:33:50;96428.00;;;9.00
10869;BMP180;62667;48.698;8.762;2023-04-19T00:36:17;96434.00;;;8.90
10869;BMP180;62667;48.698;8.762;2023-04-19T00:38:46;96436.00;;;8.90
10869;BMP180;62667;48.698;8.762;2023-04-19T00:41:13;96426.00;;;8.90
10869;BMP180;62667;48.698;8.762;2023-04-19T00:43:40;96420.00;;;8.90
10869;BMP180;62667;48.698;8.762;2023-04-19T00:46:08;96425.00;;;8.90
10869;BMP180;62667;48.698;8.762;2023-04-19T00:48:35;96420.00;;;9.00
10869;BMP180;62667;48.698;8.762;2023-04-19T00:51:03;96417.00;;;8.90
10869;BMP180;62667;48.698;8.762;2023-04-19T00:53:31;96426.00;;;8.90
10869;BMP180;62667;48.698;8.762;2023-04-19T00:56:02;96407.00;;;8.80
10869;BMP180;62667;48.698;8.762;2023-04-19T00:58:31;96415.00;;;8.80
10869;BMP180;62667;48.698;8.762;2023-04-19T01:00:59;96419.00;;;8.80
10869;BMP180;62667;48.698;8.762;2023-04-19T01:03:26;96411.00;;;8.70
10869;BMP180;62667;48.698;8.762;2023-04-19T01:05:55;96411.00;;;8.70
10869;BMP180;62667;48.698;8.762;2023-04-19T01:08:23;96411.00;;;8.70
10869;BMP180;62667;48.698;8.762;2023-04-19T01:10:50;96405.00;;;8.70
10869;BMP180;62667;48.698;8.762;2023-04-19T01:13:19;96413.00;;;8.60
10869;BMP180;62667;48.698;8.762;2023-04-19T01:15:46;96403.00;;;8.70
10869;BMP180;62667;48.698;8.762;2023-04-19T01:18:13;96402.00;;;8.70
10869;BMP180;62667;48.698;8.762;2023-04-19T01:20:41;96400.00;;;8.70
10869;BMP180;62667;48.698;8.762;2023-04-19T01:23:09;96401.00;;;8.70
10869;BMP180;62667;48.698;8.762;2023-04-19T01:25:37;96400.00;;;8.60
10869;BMP180;62667;48.698;8.762;2023-04-19T01:28:04;96394.00;;;8.60
10869;BMP180;62667;48.698;8.762;2023-04-19T01:30:32;96396.00;;;8.50
10869;BMP180;62667;48.698;8.762;2023-04-19T01:33:00;96398.00;;;8.60
10869;BMP180;62667;48.698;8.762;2023-04-19T01:35:27;96392.00;;;8.50
10869;BMP180;62667;48.698;8.762;2023-04-19T01:37:55;96389.00;;;8.50
10869;BMP180;62667;48.698;8.762;2023-04-19T01:40:25;96391.00;;;8.50
10869;BMP180;62667;48.698;8.762;2023-04-19T01:42:52;96394.00;;;8.50
10869;BMP180;62667;48.698;8.762;2023-04-19T01:45:20;96388.00;;;8.40
10869;BMP180;62667;48.698;8.762;2023-04-19T01:47:47;96383.00;;;8.30
10869;BMP180;62667;48.698;8.762;2023-04-19T01:50:15;96385.00;;;8.30
10869;BMP180;62667;48.698;8.762;2023-04-19T01:52:42;96374.00;;;8.30
10869;BMP180;62667;48.698;8.762;2023-04-19T01:55:09;96385.00;;;8.30
10869;BMP180;62667;48.698;8.762;2023-04-19T01:57:38;96373.00;;;8.40
10869;BMP180;62667;48.698;8.762;2023-04-19T02:00:06;96379.00;;;8.40
10869;BMP180;62667;48.698;8.762;2023-04-19T02:02:36;96382.00;;;8.50
10869;BMP180;62667;48.698;8.762;2023-04-19T02:05:04;96370.00;;;8.50
10869;BMP180;62667;48.698;8.762;2023-04-19T02:07:31;96360.00;;;8.50
10869;BMP180;62667;48.698;8.762;2023-04-19T02:09:58;96353.00;;;8.40
10869;BMP180;62667;48.698;8.762;2023-04-19T02:12:26;96361.00;;;8.30
10869;BMP180;62667;48.698;8.762;2023-04-19T02:14:55;96361.00;;;8.30
10869;BMP180;62667;48.698;8.762;2023-04-19T02:17:24;96356.00;;;8.30
10869;BMP180;62667;48.698;8.762;2023-04-19T02:19:52;96351.00;;;8.30
10869;BMP180;62667;48.698;8.762;2023-04-19T02:22:19;96355.00;;;8.30
10869;BMP180;62667;48.698;8.762;2023-04-19T02:24:48;96352.00;;;8.30
10869;BMP180;62667;48.698;8.762;2023-04-19T02:27:16;96355.00;;;8.30
10869;BMP180;62667;48.698;8.762;2023-04-19T02:29:43;96351.00;;;8.30
10869;BMP180;62667;48.698;8.762;2023-04-19T02:32:13;96348.00;;;8.30
10869;BMP180;62667;48.698;8.762;2023-04-19T02:34:40;96344.00;;;8.30
10869;BMP180;62667;48.698;8.762;2023-04-19T02:37:08;96357.00;;;8.20
10869;BMP180;62667;48.698;8.762;2023-04-19T02:39:35;96341.00;;;8.20
10869;BMP180;62667;48.698;8.762;2023-04-19T02:42:04;96345.00;;;8.20
10869;BMP180;62667;48.698;8.762;2023-04-19T02:44:31;96339.00;;;8.20
10869;BMP180;62667;48.698;8.762;2023-04-19T02:46:58;96345.00;;;8.20
10869;BMP180;62667;48.698;8.762;2023-04-19T02:49:29;96343.00;;;8.20
10869;BMP180;62667;48.698;8.762;2023-04-19T02:51:58;96340.00;;;8.20
10869;BMP180;62667;48.698;8.762;2023-04-19T02:54:25;96330.00;;;8.20
10869;BMP180;62667;48.698;8.762;2023-04-19T02:56:52;96332.00;;;8.10
10869;BMP180;62667;48.698;8.762;2023-04-19T02:59:20;96333.00;;;8.10
10869;BMP180;62667;48.698;8.762;2023-04-19T03:01:47;96334.00;;;8.10
10869;BMP180;62667;48.698;8.762;2023-04-19T03:04:14;96332.00;;;8.10
10869;BMP180;62667;48.698;8.762;2023-04-19T03:06:43;96337.00;;;8.20
10869;BMP180;62667;48.698;8.762;2023-04-19T03:09:10;96341.00;;;8.10
10869;BMP180;62667;48.698;8.762;2023-04-19T03:11:38;96333.00;;;8.10
10869;BMP180;62667;48.698;8.762;2023-04-19T03:14:06;96331.00;;;8.10
10869;BMP180;62667;48.698;8.762;2023-04-19T03:16:33;96325.00;;;8.00
10869;BMP180;62667;48.698;8.762;2023-04-19T03:19:00;96328.00;;;8.10
10869;BMP180;62667;48.698;8.762;2023-04-19T03:21:28;96325.00;;;8.10
10869;BMP180;62667;48.698;8.762;2023-04-19T03:23:56;96329.00;;;8.10
10869;BMP180;62667;48.698;8.762;2023-04-19T03:26:24;96331.00;;;8.10
10869;BMP180;62667;48.698;8.762;2023-04-19T03:28:52;96328.00;;;8.10
10869;BMP180;62667;48.698;8.762;2023-04-19T03:31:19;96323.00;;;8.10
10869;BMP180;62667;48.698;8.762;2023-04-19T03:33:46;96325.00;;;8.20
10869;BMP180;62667;48.698;8.762;2023-04-19T03:36:14;96322.00;;;8.10
10869;BMP180;62667;48.698;8.762;2023-04-19T03:38:41;96324.00;;;8.10
10869;BMP180;62667;48.698;8.762;2023-04-19T03:41:19;96322.00;;;8.10
10869;BMP180;62667;48.698;8.762;2023-04-19T03:43:46;96319.00;;;8.10
10869;BMP180;62667;48.698;8.762;2023-04-19T03:46:13;96317.00;;;8.10
10869;BMP180;62667;48.698;8.762;2023-04-19T03:48:41;96310.00;;;8.10
10869;BMP180;62667;48.698;8.762;2023-04-19T03:51:08;96304.00;;;8.30
10869;BMP180;62667;48.698;8.762;2023-04-19T03:53:36;96310.00;;;8.10
10869;BMP180;62667;48.698;8.762;2023-04-19T03:56:04;96315.00;;;8.10
10869;BMP180;62667;48.698;8.762;2023-04-19T03:58:33;96311.00;;;7.90
10869;BMP180;62667;48.698;8.762;2023-04-19T04:01:00;96302.00;;;8.00
10869;BMP180;62667;48.698;8.762;2023-04-19T04:03:27;96314.00;;;8.00
10869;BMP180;62667;48.698;8.762;2023-04-19T04:05:55;96307.00;;;8.00
10869;BMP180;62667;48.698;8.762;2023-04-19T04:08:22;96304.00;;;8.00
10869;BMP180;62667;48.698;8.762;2023-04-19T04:10:50;96313.00;;;8.00
10869;BMP180;62667;48.698;8.762;2023-04-19T04:13:17;96310.00;;;8.00
10869;BMP180;62667;48.698;8.762;2023-04-19T04:15:46;96308.00;;;8.00
10869;BMP180;62667;48.698;8.762;2023-04-19T04:18:13;96314.00;;;7.90
10869;BMP180;62667;48.698;8.762;2023-04-19T04:20:43;96310.00;;;7.90
10869;BMP180;62667;48.698;8.762;2023-04-19T04:23:10;96314.00;;;8.00
10869;BMP180;62667;48.698;8.762;2023-04-19T04:25:37;96317.00;;;8.00
10869;BMP180;62667;48.698;8.762;2023-04-19T04:28:05;96314.00;;;8.00
10869;BMP180;62667;48.698;8.762;2023-04-19T04:30:32;96310.00;;;8.10
10869;BMP180;62667;48.698;8.762;2023-04-19T04:33:01;96318.00;;;8.00
10869;BMP180;62667;48.698;8.762;2023-04-19T04:35:28;96321.00;;;8.00
10869;BMP180;62667;48.698;8.762;2023-04-19T04:37:56;96323.00;;;8.00
10869;BMP180;62667;48.698;8.762;2023-04-19T04:40:24;96316.00;;;8.20
10869;BMP180;62667;48.698;8.762;2023-04-19T04:42:52;96320.00;;;8.00
10869;BMP180;62667;48.698;8.762;2023-04-19T04:45:19;96320.00;;;8.10
10869;BMP180;62667;48.698;8.762;2023-04-19T04:47:47;96317.00;;;8.10
10869;BMP180;62667;48.698;8.762;2023-04-19T04:50:16;96311.00;;;8.00
10869;BMP180;62667;48.698;8.762;2023-04-19T04:52:43;96311.00;;;8.10
10869;BMP180;62667;48.698;8.762;2023-04-19T04:55:11;96310.00;;;7.90
10869;BMP180;62667;48.698;8.762;2023-04-19T04:57:38;96317.00;;;7.90
10869;BMP180;62667;48.698;8.762;2023-04-19T05:00:06;96318.00;;;7.90
10869;BMP180;62667;48.698;8.762;2023-04-19T05:02:34;96319.00;;;7.90
10869;BMP180;62667;48.698;8.762;2023-04-19T05:05:02;96322.00;;;8.00
10869;BMP180;62667;48.698;8.762;2023-04-19T05:07:31;96316.00;;;7.90
10869;BMP180;62667;48.698;8.762;2023-04-19T05:09:58;96320.00;;;8.00
10869;BMP180;62667;48.698;8.762;2023-04-19T05:12:26;96313.00;;;8.10
10869;BMP180;62667;48.698;8.762;2023-04-19T05:14:53;96312.00;;;8.10
10869;BMP180;62667;48.698;8.762;2023-04-19T05:17:20;96314.00;;;8.10
10869;BMP180;62667;48.698;8.762;2023-04-19T05:19:48;96321.00;;;8.20
10869;BMP180;62667;48.698;8.762;2023-04-19T05:22:16;96316.00;;;8.30
10869;BMP180;62667;48.698;8.762;2023-04-19T05:24:44;96312.00;;;8.40
10869;BMP180;62667;48.698;8.762;2023-04-19T05:27:12;96312.00;;;8.50
10869;BMP180;62667;48.698;8.762;2023-04-19T05:29:39;96321.00;;;8.60
10869;BMP180;62667;48.698;8.762;2023-04-19T05:32:07;96322.00;;;8.70
10869;BMP180;62667;48.698;8.762;2023-04-19T05:34:35;96315.00;;;8.70
10869;BMP180;62667;48.698;8.762;2023-04-19T05:37:03;96317.00;;;8.80
10869;BMP180;62667;48.698;8.762;2023-04-19T05:39:31;96338.00;;;8.70
10869;BMP180;62667;48.698;8.762;2023-04-19T05:42:00;96327.00;;;8.70
10869;BMP180;62667;48.698;8.762;2023-04-19T05:44:27;96328.00;;;8.50
10869;BMP180;62667;48.698;8.762;2023-04-19T05:46:55;96334.00;;;8.50
10869;BMP180;62667;48.698;8.762;2023-04-19T05:49:22;96329.00;;;8.50
10869;BMP180;62667;48.698;8.762;2023-04-19T05:51:49;96332.00;;;8.50
10869;BMP180;62667;48.698;8.762;2023-04-19T05:54:18;96331.00;;;8.40
10869;BMP180;62667;48.698;8.762;2023-04-19T05:56:45;96333.00;;;8.40
10869;BMP180;62667;48.698;8.762;2023-04-19T05:59:14;96331.00;;;8.40
10869;BMP180;62667;48.698;8.762;2023-04-19T06:01:41;96334.00;;;8.30
10869;BMP180;62667;48.698;8.762;2023-04-19T06:04:09;96338.00;;;8.30
10869;BMP180;62667;48.698;8.762;2023-04-19T06:06:36;96334.00;;;8.40
10869;BMP180;62667;48.698;8.762;2023-04-19T06:09:04;96340.00;;;8.50
10869;BMP180;62667;48.698;8.762;2023-04-19T06:11:32;96346.00;;;8.40
10869;BMP180;62667;48.698;8.762;2023-04-19T06:13:59;96345.00;;;8.40
10869;BMP180;62667;48.698;8.762;2023-04-19T06:16:28;96345.00;;;8.40
10869;BMP180;62667;48.698;8.762;2023-04-19T06:18:56;96346.00;;;8.50
10869;BMP180;62667;48.698;8.762;2023-04-19T06:21:23;96348.00;;;8.50
10869;BMP180;62667;48.698;8.762;2023-04-19T06:23:50;96347.00;;;8.50
10869;BMP180;62667;48.698;8.762;2023-04-19T06:26:18;96350.00;;;8.60
10869;BMP180;62667;48.698;8.762;2023-04-19T06:28:45;96346.00;;;8.60
10869;BMP180;62667;48.698;8.762;2023-04-19T06:31:13;96344.00;;;8.60
10869;BMP180;62667;48.698;8.762;2023-04-19T06:33:41;96347.00;;;8.70
10869;BMP180;62667;48.698;8.762;2023-04-19T06:36:09;96341.00;;;8.70
10869;BMP180;62667;48.698;8.762;2023-04-19T06:38:36;96341.00;;;8.70
10869;BMP180;62667;48.698;8.762;2023-04-19T06:41:05;96341.00;;;8.80
10869;BMP180;62667;48.698;8.762;2023-04-19T06:43:33;96334.00;;;8.80
10869;BMP180;62667;48.698;8.762;2023-04-19T06:46:01;96339.00;;;9.00
10869;BMP180;62667;48.698;8.762;2023-04-19T06:48:29;96335.00;;;9.00
10869;BMP180;62667;48.698;8.762;2023-04-19T06:50:58;96336.00;;;9.10
10869;BMP180;62667;48.698;8.762;2023-04-19T06:53:25;96327.00;;;9.20
10869;BMP180;62667;48.698;8.762;2023-04-19T06:55:58;96332.00;;;9.30
10869;BMP180;62667;48.698;8.762;2023-04-19T06:58:26;96334.00;;;9.50
10869;BMP180;62667;48.698;8.762;2023-04-19T07:00:54;96332.00;;;9.70
10869;BMP180;62667;48.698;8.762;2023-04-19T07:03:21;96330.00;;;9.80
10869;BMP180;62667;48.698;8.762;2023-04-19T07:05:49;96331.00;;;9.90
10869;BMP180;62667;48.698;8.762;2023-04-19T07:08:19;96330.00;;;10.00
10869;BMP180;62667;48.698;8.762;2023-04-19T07:10:46;96326.00;;;10.00
10869;BMP180;62667;48.698;8.762;2023-04-19T07:13:13;96327.00;;;10.10
10869;BMP180;62667;48.698;8.762;2023-04-19T07:15:41;96326.00;;;10.20
10869;BMP180;62667;48.698;8.762;2023-04-19T07:18:08;96329.00;;;10.00
10869;BMP180;62667;48.698;8.762;2023-04-19T07:20:36;96331.00;;;10.00
10869;BMP180;62667;48.698;8.762;2023-04-19T07:23:04;96330.00;;;10.20
10869;BMP180;62667;48.698;8.762;2023-04-19T07:25:33;96324.00;;;10.20
10869;BMP180;62667;48.698;8.762;2023-04-19T07:28:00;96329.00;;;10.10
10869;BMP180;62667;48.698;8.762;2023-04-19T07:30:28;96320.00;;;10.30
10869;BMP180;62667;48.698;8.762;2023-04-19T07:32:55;96321.00;;;10.40
10869;BMP180;62667;48.698;8.762;2023-04-19T07:35:22;96320.00;;;10.60
10869;BMP180;62667;48.698;8.762;2023-04-19T07:37:50;96318.00;;;10.70
10869;BMP180;62667;48.698;8.762;2023-04-19T07:40:17;96319.00;;;10.60
10869;BMP180;62667;48.698;8.762;2023-04-19T07:42:46;96312.00;;;10.60
10869;BMP180;62667;48.698;8.762;2023-04-19T07:45:13;96314.00;;;10.50
10869;BMP180;62667;48.698;8.762;2023-04-19T07:47:41;96309.00;;;10.60
10869;BMP180;62667;48.698;8.762;2023-04-19T07:50:09;96319.00;;;11.00
10869;BMP180;62667;48.698;8.762;2023-04-19T07:52:37;96309.00;;;10.90
10869;BMP180;62667;48.698;8.762;2023-04-19T07:55:06;96311.00;;;11.00
10869;BMP180;62667;48.698;8.762;2023-04-19T07:57:34;96310.00;;;11.20
10869;BMP180;62667;48.698;8.762;2023-04-19T08:00:03;96301.00;;;11.20
10869;BMP180;62667;48.698;8.762;2023-04-19T08:02:31;96313.00;;;11.30
10869;BMP180;62667;48.698;8.762;2023-04-19T08:04:58;96305.00;;;11.30
10869;BMP180;62667;48.698;8.762;2023-04-19T08:07:27;96308.00;;;11.30
10869;BMP180;62667;48.698;8.762;2023-04-19T08:09:54;96313.00;;;11.40
10869;BMP180;62667;48.698;8.762;2023-04-19T08:12:22;96304.00;;;11.70
10869;BMP180;62667;48.698;8.762;2023-04-19T08:14:49;96295.00;;;11.80
10869;BMP180;62667;48.698;8.762;2023-04-19T08:17:18;96300.00;;;11.90
10869;BMP180;62667;48.698;8.762;2023-04-19T08:19:46;96294.00;;;12.00
10869;BMP180;62667;48.698;8.762;2023-04-19T08:22:15;96295.00;;;12.10
10869;BMP180;62667;48.698;8.762;2023-04-19T08:24:43;96299.00;;;12.10
10869;BMP180;62667;48.698;8.762;2023-04-19T08:27:11;96289.00;;;12.00
10869;BMP180;62667;48.698;8.762;2023-04-19T08:29:38;96291.00;;;12.10
10869;BMP180;62667;48.698;8.762;2023-04-19T08:32:06;96293.00;;;12.20
10869;BMP180;62667;48.698;8.762;2023-04-19T08:34:36;96292.00;;;12.50
10869;BMP180;62667;48.698;8.762;2023-04-19T08:37:03;96294.00;;;12.60
10869;BMP180;62667;48.698;8.762;2023-04-19T08:39:32;96289.00;;;12.70
10869;BMP180;62667;48.698;8.762;2023-04-19T08:42:03;96289.00;;;12.50
10869;BMP180;62667;48.698;8.762;2023-04-19T08:44:32;96286.00;;;12.40
10869;BMP180;62667;48.698;8.762;2023-04-19T08:47:00;96305.00;;;12.20
10869;BMP180;62667;48.698;8.762;2023-04-19T08:49:27;96298.00;;;12.30
10869;BMP180;62667;48.698;8.762;2023-04-19T08:51:57;96288.00;;;12.20
10869;BMP180;62667;48.698;8.762;2023-04-19T08:54:25;96289.00;;;12.40
10869;BMP180;62667;48.698;8.762;2023-04-19T08:56:52;96288.00;;;12.60
10869;BMP180;62667;48.698;8.762;2023-04-19T08:59:20;96281.00;;;12.70
10869;BMP180;62667;48.698;8.762;2023-04-19T09:01:47;96278.00;;;13.00
10869;BMP180;62667;48.698;8.762;2023-04-19T09:04:15;96272.00;;;13.40
10869;BMP180;62667;48.698;8.762;2023-04-19T09:06:42;96272.00;;;13.40
10869;BMP180;62667;48.698;8.762;2023-04-19T09:09:15;96276.00;;;13.60
10869;BMP180;62667;48.698;8.762;2023-04-19T09:11:43;96273.00;;;13.50
10869;BMP180;62667;48.698;8.762;2023-04-19T09:14:12;96280.00;;;13.20
10869;BMP180;62667;48.698;8.762;2023-04-19T09:16:40;96279.00;;;13.20
10869;BMP180;62667;48.698;8.762;2023-04-19T09:19:08;96269.00;;;13.40
10869;BMP180;62667;48.698;8.762;2023-04-19T09:21:37;96261.00;;;13.30
10869;BMP180;62667;48.698;8.762;2023-04-19T09:24:06;96263.00;;;12.80
10869;BMP180;62667;48.698;8.762;2023-04-19T09:26:35;96265.00;;;12.90
10869;BMP180;62667;48.698;8.762;2023-04-19T09:29:04;96269.00;;;13.00
10869;BMP180;62667;48.698;8.762;2023-04-19T09:31:33;96270.00;;;13.10
10869;BMP180;62667;48.698;8.762;2023-04-19T09:34:13;96262.00;;;13.10
10869;BMP180;62667;48.698;8.762;2023-04-19T09:36:40;96254.00;;;13.50
10869;BMP180;62667;48.698;8.762;2023-04-19T09:39:08;96248.00;;;13.50
10869;BMP180;62667;48.698;8.762;2023-04-19T09:41:50;96258.00;;;13.60
10869;BMP180;62667;48.698;8.762;2023-04-19T09:44:18;96255.00;;;13.90
10869;BMP180;62667;48.698;8.762;2023-04-19T09:46:45;96255.00;;;14.10
10869;BMP180;62667;48.698;8.762;2023-04-19T09:49:18;96234.00;;;14.10
10869;BMP180;62667;48.698;8.762;2023-04-19T09:51:47;96247.00;;;14.40
10869;BMP180;62667;48.698;8.762;2023-04-19T09:54:15;96237.00;;;14.50
10869;BMP180;62667;48.698;8.762;2023-04-19T09:56:45;96239.00;;;14.80
10869;BMP180;62667;48.698;8.762;2023-04-19T09:59:13;96242.00;;;14.40
10869;BMP180;62667;48.698;8.762;2023-04-19T10:01:44;96231.00;;;14.50
10869;BMP180;62667;48.698;8.762;2023-04-19T10:04:13;96236.00;;;14.30
10869;BMP180;62667;48.698;8.762;2023-04-19T10:06:47;96235.00;;;14.40
10869;BMP180;62667;48.698;8.762;2023-04-19T10:09:16;96236.00;;;14.30
10869;BMP180;62667;48.698;8.762;2023-04-19T10:11:48;96235.00;;;14.20
10869;BMP180;62667;48.698;8.762;2023-04-19T10:14:16;96246.00;;;13.90
10869;BMP180;62667;48.698;8.762;2023-04-19T10:16:45;96238.00;;;13.90
10869;BMP180;62667;48.698;8.762;2023-04-19T10:19:16;96233.00;;;13.90
10869;BMP180;62667;48.698;8.762;2023-04-19T10:21:45;96233.00;;;14.00
10869;BMP180;62667;48.698;8.762;2023-04-19T10:24:14;96232.00;;;14.00
10869;BMP180;62667;48.698;8.762;2023-04-19T10:27:10;96232.00;;;14.00
10869;BMP180;62667;48.698;8.762;2023-04-19T10:29:57;96222.00;;;14.30
10869;BMP180;62667;48.698;8.762;2023-04-19T10:32:27;96223.00;;;14.40
10869;BMP180;62667;48.698;8.762;2023-04-19T10:34:54;96235.00;;;14.60
10869;BMP180;62667;48.698;8.762;2023-04-19T10:37:27;96232.00;;;14.50
10869;BMP180;62667;48.698;8.762;2023-04-19T10:39:54;96232.00;;;14.60
10869;BMP180;62667;48.698;8.762;2023-04-19T10:42:23;96232.00;;;14.40
10869;BMP180;62667;48.698;8.762;2023-04-19T10:45:33;96232.00;;;14.10
10869;BMP180;62667;48.698;8.762;2023-04-19T10:48:02;96222.00;;;13.90
10869;BMP180;62667;48.698;8.762;2023-04-19T10:53:44;96217.00;;;13.30
10869;BMP180;62667;48.698;8.762;2023-04-19T10:56:12;96215.00;;;13.30
10869;BMP180;62667;48.698;8.762;2023-04-19T10:59:15;96214.00;;;13.10
10869;BMP180;62667;48.698;8.762;2023-04-19T11:01:53;96203.00;;;13.30
10869;BMP180;62667;48.698;8.762;2023-04-19T11:04:22;96204.00;;;13.30
10869;BMP180;62667;48.698;8.762;2023-04-19T11:06:57;96201.00;;;13.10
10869;BMP180;62667;48.698;8.762;2023-04-19T11:09:28;96197.00;;;13.10
10869;BMP180;62667;48.698;8.762;2023-04-19T11:11:58;96207.00;;;13.20
10869;BMP180;62667;48.698;8.762;2023-04-19T11:14:30;96200.00;;;13.20
10869;BMP180;62667;48.698;8.762;2023-04-19T11:16:59;96192.00;;;12.70
10869;BMP180;62667;48.698;8.762;2023-04-19T11:19:26;96195.00;;;12.50
10869;BMP180;62667;48.698;8.762;2023-04-19T11:21:57;96189.00;;;12.70
10869;BMP180;62667;48.698;8.762;2023-04-19T11:24:25;96177.00;;;12.70
10869;BMP180;62667;48.698;8.762;2023-04-19T11:26:55;96185.00;;;12.80
10869;BMP180;62667;48.698;8.762;2023-04-19T11:29:23;96185.00;;;12.80
10869;BMP180;62667;48.698;8.762;2023-04-19T11:31:52;96181.00;;;12.70
10869;BMP180;62667;48.698;8.762;2023-04-19T11:34:22;96180.00;;;12.70
10869;BMP180;62667;48.698;8.762;2023-04-19T11:36:50;96187.00;;;12.60
10869;BMP180;62667;48.698;8.762;2023-04-19T11:39:18;96189.00;;;12.40
10869;BMP180;62667;48.698;8.762;2023-04-19T11:41:46;96182.00;;;12.50
10869;BMP180;62667;48.698;8.762;2023-04-19T11:44:14;96179.00;;;12.50
10869;BMP180;62667;48.698;8.762;2023-04-19T11:46:42;96173.00;;;12.40
10869;BMP180;62667;48.698;8.762;2023-04-19T11:49:27;96174.00;;;12.40
10869;BMP180;62667;48.698;8.762;2023-04-19T11:51:56;96172.00;;;12.40
10869;BMP180;62667;48.698;8.762;2023-04-19T11:54:24;96175.00;;;12.20
10869;BMP180;62667;48.698;8.762;2023-04-19T11:57:00;96176.00;;;12.20
10869;BMP180;62667;48.698;8.762;2023-04-19T11:59:29;96183.00;;;12.20
10869;BMP180;62667;48.698;8.762;2023-04-19T12:02:05;96167.00;;;12.10
10869;BMP180;62667;48.698;8.762;2023-04-19T12:04:34;96170.00;;;11.90
10869;BMP180;62667;48.698;8.762;2023-04-19T12:07:03;96174.00;;;11.90
10869;BMP180;62667;48.698;8.762;2023-04-19T12:09:33;96169.00;;;11.80
10869;BMP180;62667;48.698;8.762;2023-04-19T12:12:02;96170.00;;;11.70
10869;BMP180;62667;48.698;8.762;2023-04-19T12:14:29;96164.00;;;11.60
10869;BMP180;62667;48.698;8.762;2023-04-19T12:17:08;96168.00;;;11.40
10869;BMP180;62667;48.698;8.762;2023-04-19T12:19:41;96164.00;;;11.20
10869;BMP180;62667;48.698;8.762;2023-04-19T12:22:13;96171.00;;;11.10
10869;BMP180;62667;48.698;8.762;2023-04-19T12:24:41;96174.00;;;11.00
10869;BMP180;62667;48.698;8.762;2023-04-19T12:27:09;96164.00;;;10.90
10869;BMP180;62667;48.698;8.762;2023-04-19T12:29:38;96171.00;;;10.80
10869;BMP180;62667;48.698;8.762;2023-04-19T12:32:06;96165.00;;;10.80
10869;BMP180;62667;48.698;8.762;2023-04-19T12:34:33;96175.00;;;10.70
10869;BMP180;62667;48.698;8.762;2023-04-19T12:37:02;96173.00;;;10.60
10869;BMP180;62667;48.698;8.762;2023-04-19T12:39:29;96177.00;;;10.50
10869;BMP180;62667;48.698;8.762;2023-04-19T12:41:57;96163.00;;;10.40
10869;BMP180;62667;48.698;8.762;2023-04-19T12:44:24;96164.00;;;10.40
10869;BMP180;62667;48.698;8.762;2023-04-19T12:46:52;96150.00;;;10.50
10869;BMP180;62667;48.698;8.762;2023-04-19T12:49:22;96154.00;;;10.60
10869;BMP180;62667;48.698;8.762;2023-04-19T12:51:50;96156.00;;;10.70
10869;BMP180;62667;48.698;8.762;2023-04-19T12:54:18;96155.00;;;10.70
10869;BMP180;62667;48.698;8.762;2023-04-19T12:56:46;96144.00;;;10.80
10869;BMP180;62667;48.698;8.762;2023-04-19T12:59:13;96148.00;;;10.80
10869;BMP180;62667;48.698;8.762;2023-04-19T13:01:41;96142.00;;;10.80
10869;BMP180;62667;48.698;8.762;2023-04-19T13:04:08;96144.00;;;10.70
10869;BMP180;62667;48.698;8.762;2023-04-19T13:06:37;96141.00;;;10.70
10869;BMP180;62667;48.698;8.762;2023-04-19T13:09:05;96150.00;;;10.60
10869;BMP180;62667;48.698;8.762;2023-04-19T13:11:34;96145.00;;;10.50
10869;BMP180;62667;48.698;8.762;2023-04-19T13:14:01;96131.00;;;10.50
10869;BMP180;62667;48.698;8.762;2023-04-19T13:16:29;96136.00;;;10.50
10869;BMP180;62667;48.698;8.762;2023-04-19T13:18:56;96131.00;;;10.30
10869;BMP180;62667;48.698;8.762;2023-04-19T13:21:24;96132.00;;;10.30
10869;BMP180;62667;48.698;8.762;2023-04-19T13:23:53;96131.00;;;10.30
10869;BMP180;62667;48.698;8.762;2023-04-19T13:26:20;96129.00;;;10.30
10869;BMP180;62667;48.698;8.762;2023-04-19T13:28:49;96124.00;;;10.40
10869;BMP180;62667;48.698;8.762;2023-04-19T13:31:16;96130.00;;;10.40
10869;BMP180;62667;48.698;8.762;2023-04-19T13:33:43;96133.00;;;10.20
10869;BMP180;62667;48.698;8.762;2023-04-19T13:36:11;96127.00;;;10.00
10869;BMP180;62667;48.698;8.762;2023-04-19T13:38:38;96125.00;;;9.80
10869;BMP180;62667;48.698;8.762;2023-04-19T13:41:06;96125.00;;;9.70
10869;BMP180;62667;48.698;8.762;2023-04-19T13:43:33;96127.00;;;9.70
10869;BMP180;62667;48.698;8.762;2023-04-19T13:46:02;96125.00;;;9.60
10869;BMP180;62667;48.698;8.762;2023-04-19T13:48:29;96122.00;;;9.50
10869;BMP180;62667;48.698;8.762;2023-04-19T13:50:57;96123.00;;;9.30
10869;BMP180;62667;48.698;8.762;2023-04-19T13:53:26;96130.00;;;9.40
10869;BMP180;62667;48.698;8.762;2023-04-19T13:55:54;96119.00;;;9.30
10869;BMP180;62667;48.698;8.762;2023-04-19T13:58:22;96113.00;;;9.40
10869;BMP180;62667;48.698;8.762;2023-04-19T14:00:50;96105.00;;;9.50
10869;BMP180;62667;48.698;8.762;2023-04-19T14:03:20;96104.00;;;9.60
10869;BMP180;62667;48.698;8.762;2023-04-19T14:05:47;96100.00;;;9.50
10869;BMP180;62667;48.698;8.762;2023-04-19T14:08:14;96094.00;;;9.60
10869;BMP180;62667;48.698;8.762;2023-04-19T14:10:42;96101.00;;;9.50
10869;BMP180;62667;48.698;8.762;2023-04-19T14:13:09;96099.00;;;9.50
10869;BMP180;62667;48.698;8.762;2023-04-19T14:15:37;96097.00;;;9.60
10869;BMP180;62667;48.698;8.762;2023-04-19T14:18:04;96092.00;;;9.60
10869;BMP180;62667;48.698;8.762;2023-04-19T14:20:33;96092.00;;;9.60
10869;BMP180;62667;48.698;8.762;2023-04-19T14:23:01;96091.00;;;9.60
10869;BMP180;62667;48.698;8.762;2023-04-19T14:25:29;96090.00;;;9.70
10869;BMP180;62667;48.698;8.762;2023-04-19T14:27:56;96093.00;;;9.60